Terminal Aerodrome Forecast
Issued by NWS

Home | Current Version | Previous Version | Text Only | Print | Product List | Glossary On
Versions: 1 2 3 4 5 6 7 8 9 10 11 12 13 14 15 16
000
FTUS46 KEKA 170535
TAFCEC
TAF
KCEC 170535Z 1706/1806 VRB03KT P6SM BKN100
     FM171200 17006KT P6SM OVC010
     FM171600 18010KT 6SM -SHRA SCT005 OVC010=

USA.gov is the U.S. government's official web portal to all federal, state and local government web resources and services.